Time;durP1;ratioP1;P1;durP2;ratioP2;P2;SDS_P1;SDS_P2;PMS_P1;PMS_P2;Temp;Humidity;BMP_temperature;BMP_pressure;BME280_temperature;BME280_humidity;BME280_pressure;Samples;Min_cycle;Max_cycle;Signal;HPM_P1;HPM_P2
2022/06/03 00:02:45;;;;;;;6.18;3.67;;;10.20;99.90;;;;;;4965965;28;20553;-80
2022/06/03 00:05:49;;;;;;;7.57;4.00;;;10.20;99.90;;;;;;4978482;28;20089;-80
2022/06/03 00:08:42;;;;;;;5.40;3.45;;;10.20;99.90;;;;;;4971820;28;20085;-80
2022/06/03 00:11:45;;;;;;;7.20;3.80;;;10.10;99.90;;;;;;4956769;28;20051;-81
2022/06/03 00:14:46;;;;;;;8.10;3.67;;;10.10;99.90;;;;;;4957919;28;20051;-80
2022/06/03 00:17:31;;;;;;;7.53;3.90;;;10.00;99.90;;;;;;4954987;28;20098;-80
2022/06/03 00:20:15;;;;;;;8.18;3.92;;;10.00;99.90;;;;;;4957408;28;20117;-80
2022/06/03 00:23:06;;;;;;;7.03;4.10;;;9.90;99.90;;;;;;4974054;28;20601;-81
2022/06/03 00:26:08;;;;;;;7.00;3.85;;;9.90;99.90;;;;;;4957601;28;20058;-80
2022/06/03 00:28:40;;;;;;;7.95;3.88;;;9.90;99.90;;;;;;4957371;28;20079;-79
2022/06/03 00:31:29;;;;;;;4.55;3.35;;;9.80;99.90;;;;;;4966848;28;20081;-80
2022/06/03 00:34:06;;;;;;;7.55;4.05;;;10.00;99.90;;;;;;4993249;28;20046;-80
2022/06/03 00:36:37;;;;;;;7.93;3.92;;;9.90;99.90;;;;;;4994111;28;20050;-80
2022/06/03 00:39:27;;;;;;;9.40;4.22;;;9.80;99.90;;;;;;4990398;28;20076;-80
2022/06/03 00:42:04;;;;;;;7.07;4.10;;;9.80;99.90;;;;;;4994975;28;20054;-80
2022/06/03 00:44:45;;;;;;;8.20;3.70;;;9.70;99.90;;;;;;5004137;28;20054;-80
2022/06/03 00:47:37;;;;;;;6.95;4.07;;;9.70;99.90;;;;;;5060960;28;20044;-80
2022/06/03 00:50:05;;;;;;;8.98;4.20;;;9.70;99.90;;;;;;5054790;28;20383;-80
2022/06/03 00:52:46;;;;;;;7.13;4.10;;;9.70;99.90;;;;;;5067317;28;20052;-80
2022/06/03 00:56:03;;;;;;;6.93;4.35;;;9.70;99.90;;;;;;5071211;28;20041;-80
2022/06/03 00:58:59;;;;;;;6.90;3.85;;;9.60;99.90;;;;;;5028116;28;20073;-80
2022/06/03 01:01:24;;;;;;;8.40;3.83;;;9.60;99.90;;;;;;4954769;28;20546;-80
2022/06/03 01:03:56;;;;;;;6.57;4.40;;;9.60;99.90;;;;;;4969503;28;20068;-83
2022/06/03 01:06:39;;;;;;;6.30;4.03;;;9.50;99.90;;;;;;4968164;28;20055;-84
2022/06/03 01:09:34;;;;;;;7.65;4.13;;;9.50;99.90;;;;;;4965752;28;20050;-80
2022/06/03 01:12:32;;;;;;;8.93;4.70;;;9.50;99.90;;;;;;4962833;28;20055;-80
2022/06/03 01:15:16;;;;;;;10.77;4.63;;;9.50;99.90;;;;;;4953753;28;20066;-81
2022/06/03 01:17:55;;;;;;;9.48;4.90;;;9.40;99.90;;;;;;4943450;28;21093;-80
2022/06/03 01:20:37;;;;;;;9.93;5.18;;;9.40;99.90;;;;;;4934628;28;20467;-80
2022/06/03 01:23:32;;;;;;;7.55;4.60;;;9.30;99.90;;;;;;4945394;28;20047;-80
2022/06/03 01:26:19;;;;;;;8.30;4.70;;;9.30;99.90;;;;;;4894628;29;20125;-80
2022/06/03 01:29:00;;;;;;;7.85;5.28;;;9.30;99.90;;;;;;4878403;29;20048;-80
2022/06/03 01:32:08;;;;;;;8.90;5.43;;;9.30;99.90;;;;;;4875338;29;20239;-80
2022/06/03 01:35:07;;;;;;;8.75;4.85;;;9.30;99.90;;;;;;4920371;29;20055;-80
2022/06/03 01:37:52;;;;;;;12.23;5.40;;;9.30;99.90;;;;;;4906333;28;20059;-80
2022/06/03 01:40:26;;;;;;;8.80;4.72;;;9.30;99.90;;;;;;4957188;28;20090;-80
2022/06/03 01:43:11;;;;;;;6.72;4.78;;;9.30;99.90;;;;;;4973441;28;20058;-80
2022/06/03 01:45:55;;;;;;;12.90;5.05;;;9.20;99.90;;;;;;4956749;28;20054;-80
2022/06/03 01:48:59;;;;;;;8.18;4.63;;;9.20;99.90;;;;;;4968441;28;20038;-86
2022/06/03 01:52:03;;;;;;;9.95;5.20;;;9.20;99.90;;;;;;4972821;28;20053;-80
2022/06/03 01:55:14;;;;;;;9.18;4.93;;;9.10;99.90;;;;;;4983218;28;20050;-80
2022/06/03 01:58:01;;;;;;;10.90;5.25;;;9.20;99.90;;;;;;4982094;28;20099;-85
2022/06/03 02:00:38;;;;;;;9.55;5.43;;;9.10;99.90;;;;;;4971243;28;20096;-80
2022/06/03 02:03:31;;;;;;;17.35;6.18;;;9.10;99.90;;;;;;5020992;28;20052;-80
2022/06/03 02:06:25;;;;;;;9.88;5.80;;;9.10;99.90;;;;;;5069849;28;20110;-80
2022/06/03 02:09:09;;;;;;;9.10;5.43;;;9.00;99.90;;;;;;5056732;28;20091;-80
2022/06/03 02:11:56;;;;;;;9.00;5.40;;;9.00;99.90;;;;;;5058649;28;20493;-80
2022/06/03 02:14:24;;;;;;;7.22;5.47;;;9.00;99.90;;;;;;5051594;28;20044;-80
2022/06/03 02:17:11;;;;;;;8.43;5.30;;;9.00;99.90;;;;;;5070697;28;20190;-80
2022/06/03 02:19:36;;;;;;;8.30;5.68;;;9.00;99.90;;;;;;5052755;28;20044;-80
2022/06/03 02:22:40;;;;;;;9.02;5.50;;;8.90;99.90;;;;;;5052426;28;20509;-80
2022/06/03 02:25:34;;;;;;;10.38;5.63;;;8.90;99.90;;;;;;5052531;28;20077;-80
2022/06/03 02:28:39;;;;;;;8.57;5.85;;;8.80;99.90;;;;;;5058072;28;20041;-80
2022/06/03 02:31:36;;;;;;;11.05;6.00;;;8.80;99.90;;;;;;5068982;28;20401;-83
2022/06/03 02:34:26;;;;;;;10.23;6.68;;;8.80;99.90;;;;;;5065014;28;20093;-80
2022/06/03 02:37:04;;;;;;;9.00;6.00;;;8.70;99.90;;;;;;5059230;28;20502;-79
2022/06/03 02:39:44;;;;;;;9.50;6.07;;;8.70;99.90;;;;;;5066291;28;20128;-80
2022/06/03 02:42:17;;;;;;;10.30;6.32;;;8.70;99.90;;;;;;5051581;28;20037;-80
2022/06/03 02:45:31;;;;;;;10.38;6.45;;;8.70;99.90;;;;;;5066339;28;20137;-80
2022/06/03 02:48:29;;;;;;;14.57;6.07;;;8.60;99.90;;;;;;5012091;28;20061;-82
2022/06/03 02:51:18;;;;;;;10.25;6.40;;;8.60;99.90;;;;;;5010255;28;20045;-80
2022/06/03 02:54:05;;;;;;;10.43;5.97;;;8.60;99.90;;;;;;5019551;28;20108;-80
2022/06/03 02:56:52;;;;;;;9.57;6.53;;;8.60;99.90;;;;;;5011529;28;20077;-80
2022/06/03 02:59:39;;;;;;;10.25;6.90;;;8.60;99.90;;;;;;5009012;28;20481;-80
2022/06/03 03:02:29;;;;;;;11.90;7.13;;;8.60;99.90;;;;;;5006420;28;20574;-80
2022/06/03 03:04:57;;;;;;;11.80;7.78;;;8.50;99.90;;;;;;5010084;28;20507;-80
2022/06/03 03:08:00;;;;;;;13.35;7.68;;;8.50;99.90;;;;;;5023008;28;20108;-80
2022/06/03 03:10:32;;;;;;;12.95;7.80;;;8.50;99.90;;;;;;5027776;28;20438;-81
2022/06/03 03:13:02;;;;;;;10.52;7.35;;;8.50;99.90;;;;;;4993706;28;20046;-81
2022/06/03 03:15:55;;;;;;;12.65;7.88;;;8.40;99.90;;;;;;5008806;28;20603;-80
2022/06/03 03:18:35;;;;;;;11.57;7.97;;;8.40;99.90;;;;;;5026770;28;20049;-80
2022/06/03 03:21:25;;;;;;;10.80;7.82;;;8.40;99.90;;;;;;5010149;28;20041;-80
2022/06/03 03:24:04;;;;;;;10.30;7.30;;;8.40;99.90;;;;;;5038794;28;20097;-81
2022/06/03 03:27:12;;;;;;;11.82;6.88;;;8.30;99.90;;;;;;5059994;28;20401;-84
2022/06/03 03:29:46;;;;;;;14.20;8.25;;;8.40;99.90;;;;;;5052670;28;20058;-80
2022/06/03 03:32:29;;;;;;;11.65;6.93;;;8.40;99.90;;;;;;5052102;28;20747;-84
2022/06/03 03:35:17;;;;;;;11.73;7.60;;;8.40;99.90;;;;;;5057113;28;20051;-80
2022/06/03 03:38:01;;;;;;;14.98;7.75;;;8.40;99.90;;;;;;5041448;28;20064;-80
2022/06/03 03:40:59;;;;;;;11.10;7.40;;;8.70;99.90;;;;;;5068157;28;20051;-80
2022/06/03 03:43:52;;;;;;;10.40;6.65;;;8.40;99.90;;;;;;5068984;28;20098;-80
2022/06/03 03:46:36;;;;;;;11.82;7.85;;;8.50;99.90;;;;;;5052046;28;21456;-80
2022/06/03 03:49:27;;;;;;;9.75;7.43;;;8.60;99.90;;;;;;5058947;28;20406;-80
2022/06/03 03:52:05;;;;;;;10.93;6.88;;;8.60;99.90;;;;;;5065606;28;20044;-80
2022/06/03 03:54:49;;;;;;;12.45;7.40;;;8.60;99.90;;;;;;5054470;28;20049;-80
2022/06/03 03:57:27;;;;;;;11.27;7.40;;;8.70;99.90;;;;;;5055499;28;20497;-80
2022/06/03 04:00:08;;;;;;;11.43;7.35;;;8.80;99.90;;;;;;5057287;28;20106;-81
2022/06/03 04:02:45;;;;;;;10.45;6.50;;;8.70;99.90;;;;;;5055338;28;20476;-80
2022/06/03 04:05:47;;;;;;;14.98;7.35;;;8.80;99.90;;;;;;5064474;28;20048;-80
2022/06/03 04:08:44;;;;;;;9.50;7.32;;;8.80;99.90;;;;;;5060460;28;20037;-80
2022/06/03 04:11:29;;;;;;;9.95;6.40;;;8.80;99.90;;;;;;5046192;28;20516;-80
2022/06/03 04:14:43;;;;;;;10.35;6.57;;;9.00;99.90;;;;;;5058521;28;20049;-84
2022/06/03 04:17:50;;;;;;;9.43;7.05;;;8.90;99.90;;;;;;5060766;28;20088;-80
2022/06/03 04:20:40;;;;;;;11.45;7.03;;;8.90;99.90;;;;;;5062460;28;20505;-80
2022/06/03 04:23:21;;;;;;;11.55;7.65;;;8.90;99.90;;;;;;5054991;28;20127;-80
2022/06/03 04:25:50;;;;;;;13.85;7.90;;;9.30;99.90;;;;;;5065720;28;20047;-80
2022/06/03 04:28:53;;;;;;;14.63;7.22;;;9.10;99.90;;;;;;5048728;28;20064;-83
2022/06/03 04:31:52;;;;;;;10.55;6.43;;;9.20;99.90;;;;;;5063024;28;20398;-81
2022/06/03 04:34:36;;;;;;;13.20;7.40;;;9.30;99.90;;;;;;5058195;28;20076;-81
2022/06/03 04:37:23;;;;;;;11.77;7.20;;;9.30;99.90;;;;;;5059435;28;20110;-81
2022/06/03 04:40:19;;;;;;;9.77;6.70;;;9.40;99.90;;;;;;5055604;28;20398;-80
2022/06/03 04:43:19;;;;;;;10.88;7.00;;;9.50;99.90;;;;;;5041847;28;20076;-80
2022/06/03 04:45:57;;;;;;;10.95;5.78;;;9.50;99.90;;;;;;5062195;28;20043;-80
2022/06/03 04:48:46;;;;;;;10.85;6.85;;;9.60;99.90;;;;;;5045280;28;20132;-80
2022/06/03 04:51:49;;;;;;;13.63;7.05;;;9.70;99.90;;;;;;5065368;28;20119;-80
2022/06/03 04:54:39;;;;;;;15.25;7.65;;;9.80;99.90;;;;;;5067011;28;20055;-80
2022/06/03 04:57:39;;;;;;;12.98;6.70;;;9.90;99.90;;;;;;5070604;28;20044;-82
2022/06/03 05:00:33;;;;;;;10.93;6.63;;;10.00;99.90;;;;;;5070330;28;20063;-80
2022/06/03 05:03:12;;;;;;;12.07;6.75;;;10.10;99.90;;;;;;5060533;28;20414;-81
2022/06/03 05:05:56;;;;;;;12.18;6.53;;;10.20;99.90;;;;;;5054571;28;20174;-81
2022/06/03 05:08:52;;;;;;;9.02;7.00;;;10.30;99.90;;;;;;5045056;28;20178;-86
2022/06/03 05:11:58;;;;;;;8.27;6.75;;;10.40;99.90;;;;;;5073474;28;20098;-80
2022/06/03 05:14:38;;;;;;;16.80;6.75;;;10.50;99.90;;;;;;5053420;28;20062;-81
2022/06/03 05:17:13;;;;;;;10.48;6.70;;;10.60;99.90;;;;;;5054381;28;20041;-80
2022/06/03 05:20:19;;;;;;;11.52;7.00;;;10.70;99.90;;;;;;5054370;28;20126;-80
2022/06/03 05:23:03;;;;;;;9.90;6.95;;;10.80;99.90;;;;;;5062532;28;20053;-80
2022/06/03 05:25:56;;;;;;;12.68;6.97;;;10.90;99.90;;;;;;5052807;28;20101;-86
2022/06/03 05:28:43;;;;;;;12.15;7.22;;;11.00;99.90;;;;;;5053992;28;20077;-81
2022/06/03 05:31:09;;;;;;;9.52;6.45;;;11.20;99.90;;;;;;5053639;28;20059;-81
2022/06/03 05:34:10;;;;;;;11.95;6.80;;;11.30;99.90;;;;;;5053618;28;20049;-80
2022/06/03 05:36:48;;;;;;;11.90;6.75;;;11.40;99.90;;;;;;5053906;28;20045;-80
2022/06/03 05:39:38;;;;;;;9.48;5.97;;;11.50;99.90;;;;;;5053750;28;20654;-80
2022/06/03 05:42:27;;;;;;;14.32;6.18;;;11.60;99.90;;;;;;5052595;28;20052;-80
2022/06/03 05:45:32;;;;;;;13.50;5.75;;;11.70;99.90;;;;;;5052829;28;20513;-81
2022/06/03 05:48:11;;;;;;;8.60;5.53;;;11.90;99.90;;;;;;5052512;28;20552;-80
2022/06/03 05:51:01;;;;;;;10.38;5.60;;;12.00;99.90;;;;;;5053445;28;20049;-81
2022/06/03 05:53:58;;;;;;;9.70;5.75;;;12.10;99.90;;;;;;5053478;28;20099;-80
2022/06/03 05:56:33;;;;;;;8.65;5.25;;;12.20;99.90;;;;;;5052677;28;20049;-81
2022/06/03 05:59:23;;;;;;;12.10;5.05;;;12.40;99.90;;;;;;5052034;28;20044;-81
2022/06/03 06:02:21;;;;;;;5.88;4.28;;;12.50;99.90;;;;;;5052565;28;20040;-81
2022/06/03 06:05:03;;;;;;;9.23;4.72;;;12.60;99.90;;;;;;5052285;28;20060;-81
2022/06/03 06:07:55;;;;;;;7.28;4.13;;;12.70;99.90;;;;;;5053321;28;20453;-81
2022/06/03 06:10:47;;;;;;;8.35;4.60;;;12.90;99.90;;;;;;5053182;28;20048;-84
2022/06/03 06:14:01;;;;;;;7.13;5.00;;;13.00;99.90;;;;;;5051832;28;20130;-81
2022/06/03 06:16:35;;;;;;;7.50;3.80;;;13.20;99.90;;;;;;5053393;28;20146;-81
2022/06/03 06:19:10;;;;;;;11.40;4.20;;;13.40;99.90;;;;;;5053126;28;20071;-81
2022/06/03 06:21:47;;;;;;;6.72;3.88;;;13.50;99.90;;;;;;5052253;28;20497;-82
2022/06/03 06:24:29;;;;;;;6.15;3.88;;;13.60;99.90;;;;;;5051564;28;20056;-81
2022/06/03 06:26:55;;;;;;;5.32;3.97;;;13.70;99.90;;;;;;5053105;28;20040;-81
2022/06/03 06:30:06;;;;;;;5.25;3.60;;;13.80;99.90;;;;;;5051682;28;20391;-83
2022/06/03 06:33:11;;;;;;;8.35;4.07;;;13.90;99.90;;;;;;5035153;28;20457;-82
2022/06/03 06:35:37;;;;;;;7.63;3.70;;;14.00;99.90;;;;;;5053163;28;20110;-82
2022/06/03 06:38:30;;;;;;;8.00;3.72;;;14.10;99.90;;;;;;5053518;28;20048;-81
2022/06/03 06:41:18;;;;;;;8.55;3.40;;;14.40;99.90;;;;;;5051813;28;20053;-83
2022/06/03 06:43:57;;;;;;;10.68;4.15;;;15.30;99.90;;;;;;5051947;28;20053;-82
2022/06/03 06:46:39;;;;;;;8.05;3.50;;;16.20;99.90;;;;;;5052976;28;20041;-81
2022/06/03 06:49:21;;;;;;;6.25;3.40;;;17.20;99.90;;;;;;5053095;28;20368;-82
2022/06/03 06:51:58;;;;;;;6.00;3.33;;;18.10;99.90;;;;;;5051920;28;20088;-81
2022/06/03 06:54:52;;;;;;;9.52;3.80;;;18.70;99.90;;;;;;5051659;28;20406;-82
2022/06/03 06:57:23;;;;;;;5.97;3.30;;;19.30;99.90;;;;;;5052518;28;20510;-82
2022/06/03 06:59:56;;;;;;;4.00;2.77;;;19.80;97.10;;;;;;5051260;28;20052;-82
2022/06/03 07:02:31;;;;;;;5.85;2.70;;;20.40;93.90;;;;;;5035402;28;20365;-81
2022/06/03 07:05:09;;;;;;;5.95;2.97;;;20.80;92.30;;;;;;5052947;28;20044;-83
2022/06/03 07:07:43;;;;;;;6.38;2.90;;;21.10;91.70;;;;;;5052390;28;20518;-82
2022/06/03 07:10:33;;;;;;;4.07;2.72;;;21.40;87.90;;;;;;5051252;28;20040;-83
2022/06/03 07:13:07;;;;;;;7.85;3.03;;;21.80;87.70;;;;;;5035309;28;20049;-82
2022/06/03 07:15:50;;;;;;;5.32;3.08;;;22.00;80.50;;;;;;5051501;28;20084;-82
2022/06/03 07:21:58;;;;;;;4.90;2.70;;;22.20;79.10;;;;;;5051592;28;20516;-82
2022/06/03 07:24:45;;;;;;;5.30;2.90;;;22.50;70.70;;;;;;5010318;28;20058;-83
2022/06/03 07:27:27;;;;;;;5.15;2.55;;;22.80;74.30;;;;;;4993950;28;20064;-82
2022/06/03 07:30:02;;;;;;;6.03;3.40;;;23.20;68.50;;;;;;4981777;28;20412;-82
2022/06/03 07:32:37;;;;;;;4.22;2.95;;;23.50;66.70;;;;;;5014467;28;20496;-83
2022/06/03 07:35:07;;;;;;;4.63;3.03;;;23.60;66.00;;;;;;5014427;28;20061;-83
2022/06/03 07:37:39;;;;;;;6.20;3.30;;;23.80;65.00;;;;;;4998057;28;20124;-82
2022/06/03 07:40:10;;;;;;;7.22;2.80;;;24.10;63.40;;;;;;5014680;28;20514;-85
2022/06/03 07:42:56;;;;;;;8.15;3.22;;;24.40;61.40;;;;;;4998077;28;20519;-84
2022/06/03 07:45:36;;;;;;;5.35;2.92;;;24.70;58.40;;;;;;4997520;28;20466;-82
2022/06/03 07:48:10;;;;;;;5.28;2.63;;;24.90;59.30;;;;;;4981615;28;20497;-83
2022/06/03 07:50:45;;;;;;;5.30;2.80;;;25.20;58.50;;;;;;5014107;28;20490;-82
2022/06/03 07:53:19;;;;;;;5.78;2.97;;;25.40;57.50;;;;;;5013992;28;20392;-83
2022/06/03 07:55:53;;;;;;;4.63;2.90;;;25.70;55.50;;;;;;5013811;28;20042;-82
2022/06/03 07:58:22;;;;;;;5.85;3.08;;;25.80;54.90;;;;;;5014049;28;20042;-82
2022/06/03 08:00:48;;;;;;;6.05;3.47;;;25.80;54.40;;;;;;5048411;28;20150;-83
2022/06/03 08:03:15;;;;;;;5.60;2.92;;;26.00;54.20;;;;;;5055826;28;20049;-83
2022/06/03 08:05:44;;;;;;;5.25;2.78;;;26.20;53.00;;;;;;5054629;28;20128;-83
2022/06/03 08:11:04;;;;;;;5.45;2.60;;;26.40;51.10;;;;;;5054713;28;20414;-83
2022/06/03 08:13:42;;;;;;;7.38;3.20;;;26.50;51.00;;;;;;5054457;28;20055;-83
2022/06/03 08:16:41;;;;;;;5.13;3.10;;;26.70;49.70;;;;;;5055654;28;20375;-83
2022/06/03 08:19:24;;;;;;;4.33;2.70;;;26.70;49.70;;;;;;5055396;28;20051;-83
2022/06/03 08:21:59;;;;;;;3.92;2.97;;;26.80;49.10;;;;;;5055181;28;20056;-83
2022/06/03 08:24:47;;;;;;;4.60;3.00;;;27.00;50.10;;;;;;5054148;28;20414;-83
2022/06/03 08:27:23;;;;;;;5.50;3.15;;;27.30;48.60;;;;;;5055015;28;20387;-84
2022/06/03 08:30:03;;;;;;;4.03;2.50;;;27.50;48.40;;;;;;5053936;28;20136;-84
2022/06/03 08:32:33;;;;;;;6.97;2.80;;;27.70;47.30;;;;;;5054485;28;20052;-85
2022/06/03 08:35:04;;;;;;;6.28;2.65;;;27.80;48.40;;;;;;5054240;28;20158;-83
2022/06/03 08:37:35;;;;;;;4.97;2.58;;;27.70;46.90;;;;;;5054162;28;20053;-81
2022/06/03 08:40:20;;;;;;;5.70;2.92;;;27.70;46.60;;;;;;5036153;28;20056;-81
2022/06/03 08:42:55;;;;;;;7.07;2.60;;;27.80;47.20;;;;;;5053738;28;20128;-81
2022/06/03 08:45:33;;;;;;;9.77;2.90;;;28.10;46.70;;;;;;5053967;28;20088;-81
2022/06/03 08:48:06;;;;;;;6.57;3.00;;;28.30;46.20;;;;;;5053987;28;20087;-81
2022/06/03 08:50:40;;;;;;;6.80;2.80;;;28.40;46.40;;;;;;5054892;28;20049;-82
2022/06/03 08:53:15;;;;;;;4.20;2.60;;;28.50;45.00;;;;;;5053525;28;20049;-81
2022/06/03 08:55:51;;;;;;;6.45;2.53;;;28.50;44.90;;;;;;5053673;28;20049;-81
2022/06/03 08:58:20;;;;;;;4.47;2.90;;;28.60;46.10;;;;;;5053802;28;20048;-81
2022/06/03 09:00:59;;;;;;;5.28;2.30;;;28.70;45.40;;;;;;5054825;28;20135;-81
2022/06/03 09:03:27;;;;;;;5.32;2.50;;;28.70;44.00;;;;;;5054636;28;20049;-81
2022/06/03 09:06:32;;;;;;;4.28;2.55;;;28.70;44.50;;;;;;5054232;28;20089;-82
2022/06/03 09:09:13;;;;;;;3.65;2.47;;;28.70;44.00;;;;;;5052811;28;20045;-82
2022/06/03 09:11:51;;;;;;;4.38;2.40;;;28.90;44.70;;;;;;5054580;28;20094;-81
2022/06/03 09:14:21;;;;;;;3.70;2.08;;;29.40;45.20;;;;;;5054422;28;20413;-81
2022/06/03 09:16:47;;;;;;;;;;;29.80;44.60;;;;;;5053984;28;20056;-83
2022/06/03 09:19:42;;;;;;;3.45;2.47;;;30.10;43.50;;;;;;5053293;28;19929;-81
2022/06/03 09:22:19;;;;;;;3.65;2.20;;;30.20;43.20;;;;;;5051220;28;20049;-80
2022/06/03 09:24:45;;;;;;;5.20;2.35;;;30.10;43.20;;;;;;5054212;28;20367;-82
2022/06/03 09:27:16;;;;;;;6.50;2.30;;;30.10;42.80;;;;;;5053345;28;20394;-83
2022/06/03 09:29:48;;;;;;;3.58;2.40;;;30.10;42.90;;;;;;5052953;28;20131;-81
2022/06/03 09:32:16;;;;;;;5.45;2.08;;;30.20;42.20;;;;;;5053173;28;20135;-82
2022/06/03 09:34:48;;;;;;;3.58;2.28;;;30.20;43.00;;;;;;5054422;28;20167;-82
2022/06/03 09:37:21;;;;;;;5.28;2.20;;;30.30;42.20;;;;;;5054717;28;20136;-84
2022/06/03 09:39:49;;;;;;;3.72;2.13;;;30.30;42.30;;;;;;5054466;28;20138;-81
2022/06/03 09:42:18;;;;;;;3.53;2.10;;;30.40;41.80;;;;;;5037699;28;20049;-81
2022/06/03 09:44:46;;;;;;;4.78;2.13;;;30.50;41.00;;;;;;5057595;28;20104;-81
2022/06/03 09:47:16;;;;;;;6.85;2.10;;;30.60;41.10;;;;;;5039314;28;20053;-81
2022/06/03 09:49:46;;;;;;;7.07;2.17;;;30.90;40.60;;;;;;5055323;28;20066;-82
2022/06/03 09:52:14;;;;;;;7.47;2.65;;;30.90;40.80;;;;;;5055299;28;20272;-81
2022/06/03 09:54:43;;;;;;;5.15;1.88;;;30.80;40.50;;;;;;5055461;28;20052;-82
2022/06/03 09:57:18;;;;;;;4.15;2.53;;;30.90;40.30;;;;;;5054381;28;20048;-83
2022/06/03 09:59:59;;;;;;;3.53;1.90;;;31.10;40.10;;;;;;5054366;28;20037;-82
2022/06/03 10:02:26;;;;;;;3.17;1.95;;;31.20;40.80;;;;;;5052919;28;20045;-82
2022/06/03 10:04:53;;;;;;;3.83;2.00;;;31.40;40.70;;;;;;5054277;28;20063;-82
2022/06/03 10:07:19;;;;;;;4.38;1.98;;;31.50;39.90;;;;;;5054032;28;20045;-81
2022/06/03 10:12:49;;;;;;;2.88;1.80;;;31.70;39.50;;;;;;5052945;28;20056;-83
2022/06/03 10:18:23;;;;;;;4.10;2.10;;;31.80;38.60;;;;;;5053901;28;20049;-82
2022/06/03 10:20:51;;;;;;;3.72;1.60;;;31.70;38.00;;;;;;5052768;28;20048;-81
2022/06/03 10:23:23;;;;;;;5.00;1.92;;;31.70;38.90;;;;;;5053240;28;20402;-81
2022/06/03 10:25:49;;;;;;;2.88;1.83;;;31.90;38.20;;;;;;5053420;28;20344;-81
2022/06/03 10:28:16;;;;;;;4.35;2.17;;;31.70;37.70;;;;;;5053250;28;20044;-82
2022/06/03 10:30:44;;;;;;;7.88;1.80;;;31.60;37.80;;;;;;5053306;28;20473;-82
2022/06/03 10:33:20;;;;;;;4.18;1.50;;;31.60;38.20;;;;;;5053040;28;20135;-84
2022/06/03 10:35:48;;;;;;;5.35;2.03;;;31.80;38.10;;;;;;5052982;28;20048;-81
2022/06/03 10:38:20;;;;;;;5.47;2.30;;;32.00;38.80;;;;;;5052010;28;20049;-81
2022/06/03 10:40:51;;;;;;;4.97;2.03;;;32.10;37.30;;;;;;5058002;28;20057;-82
2022/06/03 10:43:30;;;;;;;3.00;1.70;;;32.20;38.30;;;;;;5053082;28;20052;-82
2022/06/03 10:46:08;;;;;;;3.47;1.85;;;32.50;39.60;;;;;;5051915;28;20048;-82
2022/06/03 10:48:34;;;;;;;4.68;2.13;;;32.70;37.50;;;;;;5051818;28;20055;-82
2022/06/03 10:51:15;;;;;;;2.92;1.85;;;32.60;37.30;;;;;;5051664;28;20107;-82
2022/06/03 11:02:03;;;;;;;2.53;1.77;;;31.90;37.90;;;;;;5051432;28;20060;-83
2022/06/03 11:04:39;;;;;;;9.27;2.20;;;31.10;39.00;;;;;;5052006;28;20045;-82
2022/06/03 11:07:27;;;;;;;2.83;1.60;;;31.30;39.00;;;;;;5051505;28;20493;-82
2022/06/03 11:10:02;;;;;;;2.80;1.63;;;32.00;38.30;;;;;;5051431;28;20044;-82
2022/06/03 11:12:29;;;;;;;3.00;1.80;;;32.10;37.50;;;;;;5052703;28;20037;-82
2022/06/03 11:14:56;;;;;;;4.47;1.80;;;32.20;37.40;;;;;;5052977;28;20183;-82
2022/06/03 11:17:23;;;;;;;5.72;1.60;;;32.50;37.10;;;;;;5052051;28;20178;-82
2022/06/03 11:19:54;;;;;;;4.00;1.90;;;32.80;37.10;;;;;;5051522;28;20056;-82
2022/06/03 11:22:19;;;;;;;2.20;1.60;;;32.80;36.40;;;;;;5051638;28;20053;-83
2022/06/03 11:24:57;;;;;;;5.20;1.95;;;32.90;37.00;;;;;;5051551;28;20106;-83
2022/06/03 11:27:32;;;;;;;2.40;1.90;;;32.90;36.90;;;;;;5051764;28;20158;-83
2022/06/03 11:30:04;;;;;;;3.92;1.70;;;32.90;36.40;;;;;;5052333;28;20518;-82
2022/06/03 11:32:33;;;;;;;2.92;1.70;;;32.70;36.30;;;;;;5052316;28;20056;-83
2022/06/03 11:35:06;;;;;;;3.38;1.40;;;32.60;36.10;;;;;;5052132;28;20048;-82
2022/06/03 11:37:37;;;;;;;4.75;1.65;;;32.70;36.30;;;;;;5051375;28;20041;-82
2022/06/03 11:40:20;;;;;;;4.15;1.52;;;32.60;36.90;;;;;;5052344;28;20129;-82
2022/06/03 11:43:06;;;;;;;2.85;1.60;;;32.90;37.80;;;;;;5050971;28;20068;-82
2022/06/03 11:45:47;;;;;;;5.43;1.90;;;33.00;36.80;;;;;;5051063;28;20402;-83
2022/06/03 11:48:34;;;;;;;3.72;1.38;;;33.20;35.90;;;;;;5051083;28;20049;-83
2022/06/03 11:51:01;;;;;;;2.58;1.50;;;33.20;36.10;;;;;;5051005;28;20436;-83
2022/06/03 11:53:30;;;;;;;4.18;1.98;;;33.30;36.60;;;;;;5052220;28;20056;-83
2022/06/03 11:56:02;;;;;;;3.78;2.03;;;33.40;36.50;;;;;;5050766;28;20049;-84
2022/06/03 11:58:45;;;;;;;2.92;1.65;;;33.20;36.60;;;;;;5051229;28;20041;-82
2022/06/03 12:01:30;;;;;;;1.77;1.40;;;33.30;37.60;;;;;;5034385;28;20060;-84
2022/06/03 12:04:07;;;;;;;3.53;1.60;;;33.50;36.70;;;;;;5050989;28;20509;-82
2022/06/03 12:06:44;;;;;;;2.10;1.40;;;33.60;35.40;;;;;;5050648;28;20044;-83
2022/06/03 12:09:25;;;;;;;4.65;1.58;;;33.70;34.90;;;;;;5050903;28;20048;-83
2022/06/03 12:15:17;;;;;;;2.55;1.40;;;33.60;35.20;;;;;;5053006;28;20136;-82
2022/06/03 12:17:43;;;;;;;4.30;1.75;;;33.70;36.00;;;;;;5040517;28;20558;-82
2022/06/03 12:20:31;;;;;;;6.20;1.70;;;33.80;35.20;;;;;;5055507;28;20132;-85
2022/06/03 12:23:18;;;;;;;2.55;1.35;;;34.10;34.70;;;;;;5054400;28;20067;-82
2022/06/03 12:26:16;;;;;;;3.05;1.40;;;34.10;34.80;;;;;;5054344;28;20049;-82
2022/06/03 12:28:45;;;;;;;3.08;1.60;;;34.20;34.60;;;;;;5037445;28;20059;-84
2022/06/03 12:31:22;;;;;;;4.50;2.03;;;34.20;34.70;;;;;;5053782;28;20059;-83
2022/06/03 12:34:01;;;;;;;2.83;1.50;;;34.10;35.00;;;;;;5054116;28;20559;-83
2022/06/03 12:36:47;;;;;;;1.77;1.45;;;34.00;34.80;;;;;;5054582;28;20437;-82
2022/06/03 12:39:50;;;;;;;2.70;1.35;;;34.10;35.10;;;;;;5055062;28;20044;-82
2022/06/03 12:42:31;;;;;;;1.80;1.58;;;34.40;34.90;;;;;;5054127;28;20052;-83
2022/06/03 12:44:56;;;;;;;3.60;1.88;;;34.80;34.30;;;;;;5055152;28;20407;-83
2022/06/03 12:47:39;;;;;;;2.55;1.63;;;34.80;33.00;;;;;;5055017;28;20049;-82
2022/06/03 12:50:04;;;;;;;2.92;1.60;;;34.70;33.20;;;;;;5040575;28;20062;-83
2022/06/03 12:52:30;;;;;;;5.28;2.00;;;34.60;34.10;;;;;;5074582;28;20041;-83
2022/06/03 12:55:19;;;;;;;2.05;1.50;;;34.70;33.50;;;;;;5072613;28;20132;-83
2022/06/03 12:57:57;;;;;;;3.70;1.60;;;34.70;33.90;;;;;;5056970;28;20497;-84
2022/06/03 13:00:26;;;;;;;1.95;1.30;;;34.60;33.60;;;;;;5056963;28;20056;-82
2022/06/03 13:02:56;;;;;;;3.40;1.50;;;34.60;34.30;;;;;;5073601;28;20118;-90
2022/06/03 13:05:26;;;;;;;2.17;1.25;;;34.50;34.00;;;;;;5074732;28;20103;-82
2022/06/03 13:07:59;;;;;;;3.58;1.65;;;34.40;34.20;;;;;;5075003;28;20062;-84
2022/06/03 13:10:27;;;;;;;2.92;1.42;;;34.20;33.90;;;;;;5074681;28;20040;-86
2022/06/03 13:12:54;;;;;;;3.55;1.45;;;33.90;34.60;;;;;;5074765;28;20090;-84
2022/06/03 13:15:19;;;;;;;2.55;1.80;;;33.50;34.60;;;;;;5074722;28;20036;-82
2022/06/03 13:18:10;;;;;;;3.75;1.65;;;33.20;34.70;;;;;;5074288;28;20456;-84
2022/06/03 13:20:48;;;;;;;9.38;1.70;;;33.20;34.30;;;;;;5073621;28;20506;-82
2022/06/03 13:23:34;;;;;;;2.60;1.58;;;33.20;34.40;;;;;;5056842;28;20064;-84
2022/06/03 13:26:27;;;;;;;3.42;1.60;;;33.30;34.50;;;;;;5072374;28;20048;-85
2022/06/03 13:29:08;;;;;;;3.58;1.60;;;33.50;34.50;;;;;;5057531;28;20079;-82
2022/06/03 13:31:41;;;;;;;1.92;1.30;;;33.50;34.00;;;;;;5074291;28;20064;-85
2022/06/03 13:34:12;;;;;;;4.00;1.50;;;33.30;34.50;;;;;;5074462;28;20076;-83
2022/06/03 13:36:38;;;;;;;2.10;1.30;;;32.90;34.80;;;;;;5075123;28;20066;-85
2022/06/03 13:39:06;;;;;;;2.63;1.50;;;32.40;35.10;;;;;;5075043;28;20049;-83
2022/06/03 13:44:41;;;;;;;2.17;1.65;;;31.90;35.60;;;;;;5074746;28;20109;-83
2022/06/03 13:47:20;;;;;;;4.03;1.50;;;31.70;36.70;;;;;;5074388;28;20048;-82
2022/06/03 13:50:03;;;;;;;3.83;1.52;;;31.90;36.00;;;;;;5073028;28;20045;-83
2022/06/03 13:52:32;;;;;;;2.38;1.30;;;32.10;35.60;;;;;;5074076;28;20051;-82
2022/06/03 13:55:26;;;;;;;2.83;1.30;;;32.20;35.40;;;;;;5074221;28;20048;-84
2022/06/03 13:57:58;;;;;;;3.95;1.60;;;32.60;35.90;;;;;;5031196;28;20196;-84
2022/06/03 14:00:33;;;;;;;2.85;1.38;;;32.70;35.10;;;;;;5014716;28;20061;-87
2022/06/03 14:03:02;;;;;;;2.47;1.40;;;32.60;35.00;;;;;;5014762;28;20066;-85
2022/06/03 14:05:42;;;;;;;2.97;1.35;;;32.20;34.60;;;;;;5014920;28;20053;-84
2022/06/03 14:08:21;;;;;;;;;;;31.80;34.70;;;;;;5031298;28;20091;-82
2022/06/03 14:11:04;;;;;;;3.70;1.50;;;31.40;34.90;;;;;;5031165;28;20015;-81
2022/06/03 14:13:36;;;;;;;2.80;1.48;;;30.50;36.40;;;;;;5031170;28;20050;-84
2022/06/03 14:16:26;;;;;;;3.22;1.50;;;30.20;37.70;;;;;;4998564;28;20072;-83
2022/06/03 14:18:53;;;;;;;2.20;1.37;;;30.20;37.80;;;;;;5030883;28;20048;-82
2022/06/03 14:21:23;;;;;;;2.88;1.25;;;30.40;36.60;;;;;;5014922;28;20050;-82
2022/06/03 14:23:51;;;;;;;4.22;1.40;;;30.80;36.40;;;;;;5030932;28;20049;-83
2022/06/03 14:26:24;;;;;;;2.42;1.50;;;31.40;36.20;;;;;;5031111;28;20050;-82
2022/06/03 14:29:03;;;;;;;1.80;1.48;;;31.70;35.50;;;;;;5030679;28;20140;-82